Time;durP1;ratioP1;P1;durP2;ratioP2;P2;SDS_P1;SDS_P2;PMS_P1;PMS_P2;Temp;Humidity;BMP_temperature;BMP_pressure;BME280_temperature;BME280_humidity;BME280_pressure;Samples;Min_cycle;Max_cycle;Signal;HPM_P1;HPM_P2
2022/11/30 00:01:48;;;;;;;0.50;0.10;;;9.00;99.90;;;;;;6157750;23;20405;-78
2022/11/30 00:04:16;;;;;;;0.50;0.10;;;9.00;99.90;;;;;;6159148;23;20401;-79
2022/11/30 00:06:43;;;;;;;0.50;0.10;;;9.00;99.90;;;;;;6157705;23;20424;-77
2022/11/30 00:09:12;;;;;;;0.50;0.10;;;8.90;99.90;;;;;;6158814;23;20976;-78
2022/11/30 00:11:39;;;;;;;0.60;0.20;;;9.00;99.90;;;;;;6158487;23;20924;-78
2022/11/30 00:14:07;;;;;;;0.50;0.10;;;8.90;99.90;;;;;;6157271;23;20459;-78
2022/11/30 00:16:35;;;;;;;0.50;0.10;;;8.90;99.90;;;;;;6159345;23;20512;-79
2022/11/30 00:19:05;;;;;;;0.50;0.10;;;8.90;99.90;;;;;;6161206;23;20520;-79
2022/11/30 00:21:32;;;;;;;1.17;1.07;;;8.90;99.90;;;;;;6160428;23;20405;-79
2022/11/30 00:24:00;;;;;;;0.50;0.10;;;8.90;99.90;;;;;;6158205;23;20771;-79
2022/11/30 00:26:28;;;;;;;1.60;1.40;;;8.90;99.90;;;;;;6162407;23;20869;-78
2022/11/30 00:28:56;;;;;;;0.50;0.10;;;8.90;99.90;;;;;;6159414;23;20976;-79
2022/11/30 00:31:24;;;;;;;0.50;0.10;;;9.00;99.90;;;;;;6159469;23;20473;-78
2022/11/30 00:33:52;;;;;;;0.50;0.10;;;9.00;99.90;;;;;;6164080;23;20778;-79
2022/11/30 00:36:22;;;;;;;0.50;0.10;;;9.00;99.90;;;;;;6165082;23;20429;-79
2022/11/30 00:38:51;;;;;;;0.50;0.10;;;8.90;99.90;;;;;;6162828;23;20405;-79
2022/11/30 00:41:20;;;;;;;0.50;0.10;;;8.90;99.90;;;;;;6165767;23;20409;-79
2022/11/30 00:43:48;;;;;;;0.50;0.10;;;9.00;99.90;;;;;;6163964;23;20398;-79
2022/11/30 00:46:16;;;;;;;0.50;0.10;;;9.00;99.90;;;;;;6175860;23;20405;-80
2022/11/30 00:48:44;;;;;;;0.50;0.37;;;9.00;99.90;;;;;;6171017;23;20405;-79
2022/11/30 00:51:12;;;;;;;0.50;0.10;;;9.00;99.90;;;;;;6165100;23;20413;-78
2022/11/30 00:53:42;;;;;;;0.60;0.40;;;9.00;99.90;;;;;;6159306;23;20440;-78
2022/11/30 00:56:10;;;;;;;0.50;0.10;;;9.00;99.90;;;;;;6157065;23;20401;-80
2022/11/30 00:58:38;;;;;;;0.50;0.10;;;9.10;99.90;;;;;;6162108;23;20455;-79
2022/11/30 05:02:07;;;;;;;0.50;0.10;;;;;;;;;;6103222;23;20485;-78
2022/11/30 05:04:35;;;;;;;0.50;0.10;;;9.10;94.00;;;;;;6126269;23;20430;-77
2022/11/30 05:07:03;;;;;;;0.50;0.10;;;9.00;99.90;;;;;;6126314;23;20719;-77
2022/11/30 05:09:32;;;;;;;0.50;0.10;;;9.00;99.90;;;;;;6126688;23;20408;-77
2022/11/30 05:12:00;;;;;;;0.50;0.10;;;9.00;99.90;;;;;;6126377;23;20478;-77
2022/11/30 05:14:28;;;;;;;0.50;0.10;;;;;;;;;;6138940;23;20524;-78
2022/11/30 05:16:56;;;;;;;0.50;0.10;;;9.00;99.90;;;;;;6154360;23;20405;-77
2022/11/30 05:19:25;;;;;;;0.50;0.10;;;9.00;99.90;;;;;;6154877;23;20409;-77
2022/11/30 05:21:53;;;;;;;0.50;0.20;;;9.00;99.90;;;;;;6154166;23;20413;-77
2022/11/30 05:24:20;;;;;;;0.50;0.10;;;9.00;99.90;;;;;;6155954;23;20429;-78
2022/11/30 05:26:48;;;;;;;0.50;0.10;;;9.10;99.90;;;;;;6155314;23;20416;-77
2022/11/30 05:29:16;;;;;;;0.50;0.10;;;9.00;99.90;;;;;;6155003;23;20508;-78
2022/11/30 05:31:44;;;;;;;0.50;0.10;;;9.10;99.90;;;;;;6154928;23;20464;-78
2022/11/30 05:34:12;;;;;;;0.50;0.10;;;;;;;;;;6154784;23;20436;-78
2022/11/30 05:36:43;;;;;;;0.50;0.10;;;9.10;99.90;;;;;;6154596;23;20404;-78
2022/11/30 05:39:11;;;;;;;0.50;0.10;;;9.10;99.90;;;;;;6155579;23;20783;-77
2022/11/30 05:41:38;;;;;;;0.50;0.10;;;9.10;99.90;;;;;;6156673;23;20461;-78
2022/11/30 05:44:06;;;;;;;0.50;0.10;;;9.10;99.90;;;;;;6155087;23;20586;-77
2022/11/30 05:46:34;;;;;;;0.50;0.10;;;9.10;99.90;;;;;;6155732;23;20971;-77
2022/11/30 05:49:07;;;;;;;0.70;0.40;;;9.10;99.90;;;;;;6154617;23;20449;-77
2022/11/30 05:51:35;;;;;;;0.50;0.10;;;9.10;99.90;;;;;;6154140;23;20389;-78
2022/11/30 05:54:04;;;;;;;1.20;1.13;;;9.10;99.90;;;;;;6153430;23;20456;-77
2022/11/30 05:56:32;;;;;;;0.50;0.10;;;9.10;99.90;;;;;;6153888;23;20503;-78
2022/11/30 05:59:00;;;;;;;0.50;0.10;;;9.10;99.90;;;;;;6154006;23;20786;-77
2022/11/30 06:01:29;;;;;;;0.50;0.10;;;9.10;99.90;;;;;;6153948;23;20787;-77
2022/11/30 06:03:57;;;;;;;0.50;0.10;;;9.00;99.90;;;;;;6153571;23;20429;-77
2022/11/30 06:06:25;;;;;;;0.50;0.10;;;9.00;99.90;;;;;;6153707;23;20424;-77
2022/11/30 06:08:54;;;;;;;0.70;0.10;;;9.10;99.90;;;;;;6154311;23;20409;-78
2022/11/30 06:11:23;;;;;;;0.50;0.10;;;9.10;99.90;;;;;;6154889;23;20409;-78
2022/11/30 06:13:51;;;;;;;0.50;0.10;;;9.00;99.90;;;;;;6157369;23;20432;-78
2022/11/30 06:16:19;;;;;;;0.50;0.10;;;9.00;99.90;;;;;;6157445;23;20444;-78
2022/11/30 06:18:47;;;;;;;0.50;0.20;;;;;;;;;;6156966;23;20468;-77
2022/11/30 06:21:15;;;;;;;1.70;1.60;;;9.10;99.90;;;;;;6173275;23;20401;-78
2022/11/30 06:23:50;;;;;;;0.50;0.10;;;9.10;99.90;;;;;;6170160;23;20448;-78
2022/11/30 06:26:18;;;;;;;0.50;0.20;;;9.10;99.90;;;;;;6156997;23;20413;-78
2022/11/30 06:28:47;;;;;;;0.50;0.10;;;9.10;99.90;;;;;;6156287;23;20417;-78
2022/11/30 06:31:16;;;;;;;1.00;0.63;;;9.10;99.90;;;;;;6153639;23;20463;-78
2022/11/30 06:33:44;;;;;;;0.63;0.63;;;9.10;99.90;;;;;;6154110;23;20452;-78
2022/11/30 06:36:12;;;;;;;0.50;0.10;;;;;;;;;;6156937;23;20446;-77
2022/11/30 06:38:40;;;;;;;0.50;0.10;;;9.10;99.90;;;;;;6163633;23;20437;-78
2022/11/30 06:41:11;;;;;;;1.40;1.30;;;9.10;99.90;;;;;;6155146;23;20462;-78
2022/11/30 06:43:39;;;;;;;0.50;0.30;;;9.00;99.90;;;;;;6155505;23;20779;-78
2022/11/30 06:46:09;;;;;;;1.53;1.43;;;9.00;99.90;;;;;;6155704;23;20400;-79
2022/11/30 06:48:37;;;;;;;0.50;0.10;;;9.00;99.90;;;;;;6153189;23;20878;-78
2022/11/30 06:51:06;;;;;;;168.27;122.23;;;9.00;99.90;;;;;;6154030;23;20801;-77
2022/11/30 06:53:34;;;;;;;0.50;0.10;;;9.00;99.90;;;;;;6155379;23;20429;-79
2022/11/30 06:56:04;;;;;;;0.50;0.10;;;9.00;99.90;;;;;;6154542;23;20500;-79
2022/11/30 06:58:37;;;;;;;0.50;0.10;;;9.00;99.90;;;;;;6154647;23;20724;-76
2022/11/30 07:01:06;;;;;;;0.50;0.20;;;9.00;99.90;;;;;;6154265;23;20404;-77
2022/11/30 07:03:35;;;;;;;0.50;0.20;;;9.00;99.90;;;;;;6153652;23;20425;-77
2022/11/30 07:06:07;;;;;;;0.50;0.10;;;8.90;99.90;;;;;;6151938;23;20405;-77
2022/11/30 07:08:35;;;;;;;0.50;0.10;;;8.90;99.90;;;;;;6153202;23;20413;-77
2022/11/30 07:11:03;;;;;;;0.50;0.10;;;8.90;99.90;;;;;;6153153;23;20408;-77
2022/11/30 07:13:31;;;;;;;2.03;1.93;;;9.00;99.90;;;;;;6153247;23;20506;-77
2022/11/30 07:15:59;;;;;;;0.50;0.20;;;9.00;99.90;;;;;;6155325;23;20491;-77
2022/11/30 07:18:27;;;;;;;3.10;2.87;;;9.00;99.90;;;;;;6156096;23;20865;-77
2022/11/30 07:21:00;;;;;;;0.60;0.37;;;9.00;99.90;;;;;;6157393;23;20459;-80
2022/11/30 07:26:22;;;;;;;0.50;0.20;;;9.00;99.90;;;;;;6158478;23;20418;-78
2022/11/30 07:28:53;;;;;;;0.50;0.10;;;9.00;99.90;;;;;;6157814;23;20427;-77
2022/11/30 07:31:25;;;;;;;0.50;0.10;;;9.10;99.90;;;;;;6158726;23;20405;-77
2022/11/30 07:33:58;;;;;;;0.50;0.10;;;9.10;99.90;;;;;;6160147;23;20442;-78
2022/11/30 07:36:29;;;;;;;0.50;0.10;;;9.10;99.90;;;;;;6159259;23;20437;-78
2022/11/30 07:38:57;;;;;;;0.50;0.10;;;9.10;99.90;;;;;;6157938;23;20735;-77
2022/11/30 07:41:25;;;;;;;0.50;0.10;;;9.10;99.90;;;;;;6159782;23;20539;-77
2022/11/30 07:43:53;;;;;;;0.50;0.10;;;;;;;;;;6165033;23;20550;-77
2022/11/30 07:46:21;;;;;;;0.50;0.10;;;9.10;99.90;;;;;;6167799;23;20419;-76
2022/11/30 07:48:49;;;;;;;0.50;0.10;;;9.10;99.90;;;;;;6164349;23;20409;-77
2022/11/30 07:51:19;;;;;;;0.50;0.10;;;9.10;99.90;;;;;;6166119;23;20409;-77
2022/11/30 07:53:49;;;;;;;0.50;0.10;;;9.10;99.90;;;;;;6169370;23;20448;-77
2022/11/30 07:56:19;;;;;;;1.57;1.47;;;9.10;99.90;;;;;;6158762;23;20461;-77
2022/11/30 07:58:48;;;;;;;0.90;0.30;;;9.10;99.90;;;;;;6157922;23;20452;-77
2022/11/30 08:01:18;;;;;;;0.50;0.20;;;9.10;99.90;;;;;;6158092;23;20901;-78
2022/11/30 08:03:46;;;;;;;0.50;0.10;;;9.10;99.90;;;;;;6155961;23;20487;-78
2022/11/30 08:06:18;;;;;;;0.50;0.10;;;9.10;99.90;;;;;;6156615;23;20405;-77
2022/11/30 08:08:48;;;;;;;4.27;4.13;;;9.10;99.90;;;;;;6157855;23;20385;-77
2022/11/30 08:11:18;;;;;;;1.63;0.57;;;9.20;99.90;;;;;;6155737;23;20413;-76
2022/11/30 08:13:46;;;;;;;0.50;0.10;;;9.20;99.90;;;;;;6155993;23;20767;-77
2022/11/30 08:16:16;;;;;;;1.47;0.93;;;9.20;99.90;;;;;;6155620;23;20452;-77
2022/11/30 08:18:46;;;;;;;0.50;0.10;;;9.10;99.90;;;;;;6155243;23;20438;-76
2022/11/30 08:21:16;;;;;;;0.50;0.10;;;9.10;99.90;;;;;;6155441;23;20400;-76
2022/11/30 08:23:46;;;;;;;0.80;0.80;;;9.10;99.90;;;;;;6154814;23;20483;-77
2022/11/30 08:26:17;;;;;;;0.50;0.10;;;9.10;99.90;;;;;;6155495;23;20401;-76
2022/11/30 08:28:46;;;;;;;0.50;0.10;;;9.10;99.90;;;;;;6154958;23;21060;-76
2022/11/30 08:31:17;;;;;;;0.50;0.10;;;9.10;99.90;;;;;;6155506;23;20413;-77
2022/11/30 08:33:45;;;;;;;0.50;0.10;;;9.10;99.90;;;;;;6155131;23;20425;-76
2022/11/30 08:36:15;;;;;;;0.50;0.10;;;9.10;99.90;;;;;;6155429;23;20450;-75
2022/11/30 08:38:44;;;;;;;0.50;0.10;;;9.10;99.90;;;;;;6155620;23;20405;-77
2022/11/30 08:41:13;;;;;;;0.50;0.10;;;9.10;99.90;;;;;;6160923;23;20408;-79
2022/11/30 08:43:43;;;;;;;0.50;0.10;;;9.10;99.90;;;;;;6164146;23;20425;-78
2022/11/30 08:46:12;;;;;;;0.50;0.10;;;9.10;99.90;;;;;;6160616;23;20424;-76
2022/11/30 08:49:00;;;;;;;0.50;0.10;;;9.10;99.90;;;;;;6155159;23;20401;-75
2022/11/30 08:51:48;;;;;;;0.50;0.10;;;9.10;99.90;;;;;;6154837;23;21006;-76
2022/11/30 08:54:37;;;;;;;0.50;0.10;;;9.10;99.90;;;;;;6154590;23;20933;-76
2022/11/30 08:57:05;;;;;;;0.50;0.10;;;9.10;99.90;;;;;;6154477;23;20447;-76
2022/11/30 08:59:35;;;;;;;0.50;0.10;;;;;;;;;;6155000;23;20657;-76
2022/11/30 09:02:03;;;;;;;0.50;0.10;;;9.10;99.90;;;;;;6155481;23;20468;-77
2022/11/30 09:04:31;;;;;;;0.50;0.10;;;9.20;99.90;;;;;;6155385;23;20433;-77
2022/11/30 09:06:59;;;;;;;0.50;0.10;;;9.20;99.90;;;;;;6155317;23;20402;-78
2022/11/30 09:09:27;;;;;;;2.57;2.37;;;9.10;99.90;;;;;;6155359;23;20409;-77
2022/11/30 09:11:55;;;;;;;0.50;0.10;;;9.10;99.90;;;;;;6155657;23;20405;-76
2022/11/30 09:14:23;;;;;;;0.57;0.27;;;9.10;99.90;;;;;;6151325;23;20448;-77
2022/11/30 09:16:52;;;;;;;0.60;0.10;;;9.10;99.90;;;;;;6155247;23;20763;-77
2022/11/30 09:19:21;;;;;;;0.60;0.50;;;9.10;99.90;;;;;;6155679;23;20730;-77
2022/11/30 09:21:49;;;;;;;0.80;0.47;;;9.10;99.90;;;;;;6155387;23;20766;-77
2022/11/30 09:24:19;;;;;;;0.50;0.10;;;6.60;99.90;;;;;;6155099;23;20528;-77
2022/11/30 09:26:47;;;;;;;0.50;0.10;;;9.10;99.90;;;;;;6155822;23;20406;-77
2022/11/30 09:29:15;;;;;;;0.50;0.10;;;9.10;99.90;;;;;;6155559;23;20455;-76
2022/11/30 09:31:43;;;;;;;0.57;0.40;;;9.20;99.90;;;;;;6155545;23;20485;-77
2022/11/30 09:34:12;;;;;;;0.50;0.10;;;9.20;99.90;;;;;;6156561;23;20429;-77
2022/11/30 09:36:40;;;;;;;0.50;0.10;;;9.20;99.90;;;;;;6157090;23;20444;-76
2022/11/30 09:39:09;;;;;;;3.90;3.60;;;9.20;99.90;;;;;;6155359;23;20716;-78
2022/11/30 09:41:59;;;;;;;0.50;0.10;;;9.20;99.90;;;;;;6154816;23;20405;-77
2022/11/30 09:44:32;;;;;;;0.50;0.10;;;;;;;;;;6155038;23;20421;-77
2022/11/30 09:47:32;;;;;;;0.50;0.10;;;9.30;99.90;;;;;;6155618;23;20420;-76
2022/11/30 09:50:10;;;;;;;0.50;0.10;;;9.30;99.90;;;;;;6154997;23;20413;-77
2022/11/30 09:52:42;;;;;;;0.50;0.10;;;9.40;99.90;;;;;;6158496;23;20389;-76
2022/11/30 09:55:14;;;;;;;0.50;0.10;;;9.40;99.90;;;;;;6168862;23;20423;-76
2022/11/30 09:57:46;;;;;;;0.60;0.40;;;9.40;99.90;;;;;;6170094;23;21003;-77
2022/11/30 10:00:16;;;;;;;0.50;0.10;;;9.40;99.90;;;;;;6158215;23;20777;-77
2022/11/30 10:02:45;;;;;;;0.50;0.10;;;9.40;99.90;;;;;;6155758;23;20439;-77
2022/11/30 10:05:17;;;;;;;0.50;0.10;;;9.40;99.90;;;;;;6155888;23;20449;-77
2022/11/30 10:07:58;;;;;;;0.50;0.10;;;9.40;99.90;;;;;;6155285;23;20406;-76
2022/11/30 10:10:35;;;;;;;1.50;1.40;;;9.40;99.90;;;;;;6155367;23;20476;-77
2022/11/30 10:13:19;;;;;;;0.50;0.10;;;9.40;99.90;;;;;;6155295;23;20734;-77
2022/11/30 10:15:59;;;;;;;0.50;0.10;;;9.40;99.90;;;;;;6155318;23;20381;-77
2022/11/30 10:18:40;;;;;;;0.50;0.10;;;9.40;99.90;;;;;;6155040;23;20466;-76
2022/11/30 10:21:20;;;;;;;1.40;1.20;;;9.40;99.90;;;;;;6155061;23;20386;-77
2022/11/30 10:24:02;;;;;;;0.60;0.20;;;9.40;99.90;;;;;;6155467;23;20507;-77
2022/11/30 10:26:34;;;;;;;9.10;1.47;;;9.40;99.90;;;;;;6155232;23;20754;-77
2022/11/30 10:29:14;;;;;;;0.50;0.10;;;9.40;99.90;;;;;;6155083;23;20405;-77
2022/11/30 10:31:43;;;;;;;0.50;0.10;;;9.50;99.90;;;;;;6154436;23;20926;-77
2022/11/30 10:34:19;;;;;;;0.50;0.10;;;9.50;99.90;;;;;;6154969;23;20496;-77
2022/11/30 10:36:53;;;;;;;0.50;0.10;;;9.50;99.90;;;;;;6154510;23;20862;-77
2022/11/30 10:39:26;;;;;;;0.50;0.10;;;9.50;99.90;;;;;;6156920;23;20416;-77
2022/11/30 10:41:57;;;;;;;2.43;2.30;;;9.50;99.90;;;;;;6154777;23;20420;-77
2022/11/30 10:44:28;;;;;;;1.10;1.07;;;9.50;99.90;;;;;;6154088;23;20945;-78
2022/11/30 10:47:00;;;;;;;0.50;0.10;;;9.50;99.90;;;;;;6154894;23;20416;-77
2022/11/30 10:49:30;;;;;;;0.50;0.20;;;9.50;99.90;;;;;;6158031;23;20722;-76
2022/11/30 10:52:05;;;;;;;0.83;0.83;;;9.50;99.90;;;;;;6157052;23;20385;-78
2022/11/30 10:54:36;;;;;;;0.97;0.87;;;9.40;99.90;;;;;;6157604;23;20450;-78
2022/11/30 10:57:06;;;;;;;3.20;3.00;;;9.40;99.90;;;;;;6156694;23;20415;-78
2022/11/30 10:59:41;;;;;;;0.50;0.20;;;9.40;99.90;;;;;;6156394;23;20908;-78
2022/11/30 11:02:45;;;;;;;0.50;0.10;;;9.40;99.90;;;;;;6157127;23;20511;-79
2022/11/30 11:05:20;;;;;;;0.50;0.10;;;9.40;99.90;;;;;;6157728;23;20459;-78
2022/11/30 11:07:53;;;;;;;0.50;0.10;;;9.40;99.90;;;;;;6156621;23;20504;-77
2022/11/30 11:10:30;;;;;;;0.50;0.10;;;9.40;99.90;;;;;;6156971;23;20420;-77
2022/11/30 11:12:58;;;;;;;0.50;0.10;;;9.40;99.90;;;;;;6156307;23;20393;-77
2022/11/30 11:15:28;;;;;;;0.50;0.10;;;9.40;99.90;;;;;;6156363;23;20441;-78
2022/11/30 11:18:20;;;;;;;0.50;0.10;;;9.40;99.90;;;;;;6158576;23;20503;-77
2022/11/30 11:20:51;;;;;;;0.50;0.10;;;9.40;99.90;;;;;;6155271;23;20407;-77
2022/11/30 11:23:30;;;;;;;0.50;0.10;;;9.40;99.90;;;;;;6155797;23;20416;-78
2022/11/30 11:25:57;;;;;;;0.50;0.10;;;9.40;99.90;;;;;;6156587;23;20475;-78
2022/11/30 11:28:26;;;;;;;0.50;0.10;;;9.40;99.90;;;;;;6155729;23;20915;-78
2022/11/30 11:30:55;;;;;;;0.50;0.10;;;9.50;99.90;;;;;;6157858;23;20401;-79
2022/11/30 11:33:28;;;;;;;0.50;0.10;;;9.50;99.90;;;;;;6157383;23;20401;-80
2022/11/30 11:36:13;;;;;;;0.50;0.20;;;9.50;99.90;;;;;;6156732;23;20401;-76
2022/11/30 11:38:45;;;;;;;0.50;0.10;;;9.40;99.90;;;;;;6156004;23;20520;-76
2022/11/30 11:41:20;;;;;;;0.50;0.10;;;9.40;99.90;;;;;;6155463;23;20854;-78
2022/11/30 11:44:01;;;;;;;0.50;0.10;;;9.50;99.90;;;;;;6156514;23;20952;-77
2022/11/30 11:46:29;;;;;;;0.50;0.10;;;9.50;99.90;;;;;;6156357;23;20405;-77
2022/11/30 11:49:00;;;;;;;0.50;0.10;;;9.60;99.90;;;;;;6156580;23;20412;-76
2022/11/30 11:51:33;;;;;;;0.50;0.20;;;9.60;99.90;;;;;;6157674;23;20404;-77
2022/11/30 11:54:08;;;;;;;0.50;0.10;;;9.70;99.90;;;;;;6157444;23;20496;-77
2022/11/30 11:56:37;;;;;;;0.50;0.10;;;9.70;99.90;;;;;;6156720;23;20404;-77
2022/11/30 11:59:12;;;;;;;0.50;0.10;;;9.70;99.90;;;;;;6155382;23;20441;-77
2022/11/30 12:01:48;;;;;;;0.60;0.30;;;12.10;99.90;;;;;;6160743;23;20404;-77
2022/11/30 12:04:36;;;;;;;0.50;0.10;;;9.80;99.90;;;;;;6156295;23;20429;-76
2022/11/30 12:07:13;;;;;;;0.50;0.20;;;9.80;99.90;;;;;;6158088;23;20503;-76
2022/11/30 12:10:02;;;;;;;0.50;0.10;;;9.80;97.50;;;;;;6161137;23;20370;-77
2022/11/30 12:12:30;;;;;;;0.50;0.10;;;9.80;95.00;;;;;;6159355;23;20409;-77
2022/11/30 12:14:58;;;;;;;0.50;0.10;;;9.90;90.60;;;;;;6157156;23;20451;-77
2022/11/30 12:17:38;;;;;;;0.50;0.10;;;9.90;91.60;;;;;;6158724;23;20765;-78
2022/11/30 12:20:17;;;;;;;0.50;0.10;;;9.90;87.10;;;;;;6156728;23;20397;-77
2022/11/30 12:23:03;;;;;;;0.60;0.40;;;9.80;87.10;;;;;;6157504;23;20389;-76
2022/11/30 12:25:41;;;;;;;0.50;0.10;;;9.80;87.10;;;;;;6155880;23;20421;-77
2022/11/30 12:28:21;;;;;;;0.50;0.10;;;9.80;90.80;;;;;;6160681;23;20381;-76
2022/11/30 12:31:02;;;;;;;4.80;4.57;;;9.70;87.90;;;;;;6161206;23;20916;-76
2022/11/30 12:33:43;;;;;;;0.50;0.30;;;7.80;87.30;;;;;;6162300;23;20420;-77
2022/11/30 12:36:17;;;;;;;0.50;0.10;;;9.70;89.90;;;;;;6161384;23;20416;-78
2022/11/30 12:38:49;;;;;;;0.50;0.20;;;9.70;92.00;;;;;;6159127;23;20468;-77
2022/11/30 12:41:32;;;;;;;0.50;0.10;;;9.70;92.80;;;;;;6159627;23;20401;-77
2022/11/30 12:44:14;;;;;;;0.50;0.10;;;9.70;90.40;;;;;;6157736;23;20452;-77
2022/11/30 12:46:49;;;;;;;0.60;0.37;;;9.70;93.10;;;;;;6156810;23;20471;-77
2022/11/30 12:49:39;;;;;;;0.50;0.10;;;9.70;89.20;;;;;;6155593;23;20456;-77
2022/11/30 12:52:23;;;;;;;0.50;0.10;;;9.70;88.50;;;;;;6156700;23;20458;-77
2022/11/30 12:54:59;;;;;;;0.50;0.10;;;9.70;90.10;;;;;;6154763;23;20436;-77
2022/11/30 12:57:34;;;;;;;0.50;0.30;;;9.70;91.30;;;;;;6155430;23;20405;-77
2022/11/30 13:00:08;;;;;;;0.50;0.10;;;9.70;91.60;;;;;;6155362;23;20909;-76
2022/11/30 13:03:05;;;;;;;0.50;0.10;;;9.70;91.70;;;;;;6155685;23;20717;-77
2022/11/30 13:05:39;;;;;;;0.57;0.30;;;9.70;92.00;;;;;;6155643;23;20941;-76
2022/11/30 13:08:14;;;;;;;0.50;0.10;;;9.70;93.70;;;;;;6155341;23;20401;-76
2022/11/30 13:10:45;;;;;;;0.50;0.10;;;9.60;91.20;;;;;;6154778;23;20381;-77
2022/11/30 13:13:18;;;;;;;0.50;0.10;;;9.50;91.10;;;;;;6155041;23;20413;-77
2022/11/30 13:15:48;;;;;;;0.50;0.10;;;9.50;94.40;;;;;;6155516;23;20386;-77
2022/11/30 13:18:20;;;;;;;0.90;0.60;;;9.50;95.60;;;;;;6155091;23;20483;-77
2022/11/30 13:20:52;;;;;;;0.50;0.10;;;9.50;97.30;;;;;;6156551;23;20924;-77
2022/11/30 13:23:30;;;;;;;0.50;0.10;;;9.60;97.90;;;;;;6155335;23;20463;-78
2022/11/30 13:26:05;;;;;;;0.50;0.10;;;9.60;99.90;;;;;;6155333;23;20389;-78
2022/11/30 13:28:53;;;;;;;0.50;0.10;;;9.60;99.10;;;;;;6154659;23;20412;-77
2022/11/30 13:31:24;;;;;;;0.50;0.10;;;9.60;98.30;;;;;;6154748;23;20385;-77
2022/11/30 13:33:59;;;;;;;0.50;0.10;;;9.60;96.60;;;;;;6155892;23;20480;-77
2022/11/30 13:36:34;;;;;;;0.50;0.10;;;9.60;98.60;;;;;;6154591;23;20412;-78
2022/11/30 13:39:30;;;;;;;0.50;0.10;;;9.60;98.30;;;;;;6155112;23;20444;-77
2022/11/30 13:42:29;;;;;;;0.50;0.10;;;9.70;97.20;;;;;;6154110;23;20452;-77
2022/11/30 13:45:05;;;;;;;0.50;0.10;;;9.70;92.30;;;;;;6157219;23;20424;-76
2022/11/30 13:47:33;;;;;;;4.33;4.00;;;9.70;89.70;;;;;;6155145;23;20750;-77
2022/11/30 13:50:08;;;;;;;0.50;0.10;;;9.70;90.70;;;;;;6155206;23;20408;-77
2022/11/30 13:53:08;;;;;;;0.50;0.10;;;9.60;81.60;;;;;;6154536;23;20915;-77
2022/11/30 13:55:59;;;;;;;0.50;0.10;;;9.70;76.20;;;;;;6154661;23;20416;-77
2022/11/30 13:58:27;;;;;;;0.50;0.10;;;9.70;77.70;;;;;;6100140;23;20435;-78
2022/11/30 14:01:28;;;;;;;0.50;0.10;;;9.70;85.20;;;;;;6155383;23;20786;-77
2022/11/30 14:04:22;;;;;;;0.50;0.10;;;9.70;75.90;;;;;;6154534;23;20425;-77
2022/11/30 14:06:51;;;;;;;0.50;0.10;;;9.70;76.30;;;;;;6155632;23;20799;-77
2022/11/30 14:09:55;;;;;;;0.50;0.10;;;9.70;82.40;;;;;;6154970;23;20730;-77
2022/11/30 14:12:57;;;;;;;0.50;0.20;;;9.70;79.00;;;;;;6154430;23;20459;-77
2022/11/30 14:15:54;;;;;;;0.50;0.10;;;9.70;67.90;;;;;;6154763;23;20771;-77
2022/11/30 14:18:41;;;;;;;0.50;0.10;;;9.70;57.90;;;;;;6143677;23;20412;-76
2022/11/30 14:21:26;;;;;;;0.50;0.10;;;9.70;63.40;;;;;;6154678;23;20404;-77
2022/11/30 14:23:57;;;;;;;0.50;0.10;;;9.70;57.60;;;;;;6156039;23;20436;-76
2022/11/30 14:26:30;;;;;;;0.50;0.10;;;9.70;58.30;;;;;;6155697;23;20786;-76
2022/11/30 14:29:03;;;;;;;0.50;0.10;;;9.70;67.50;;;;;;6161397;23;20417;-77
2022/11/30 14:31:37;;;;;;;1.90;1.80;;;9.70;73.40;;;;;;6162157;23;20425;-77
2022/11/30 14:34:14;;;;;;;1.37;1.33;;;9.70;72.80;;;;;;6156565;23;20972;-77
2022/11/30 14:36:47;;;;;;;0.80;0.40;;;9.60;78.10;;;;;;6154788;23;20402;-77
2022/11/30 14:39:27;;;;;;;0.67;0.50;;;9.70;75.80;;;;;;6154173;23;20448;-75
2022/11/30 14:41:55;;;;;;;0.50;0.10;;;9.70;80.40;;;;;;6154529;23;20412;-77
2022/11/30 14:44:23;;;;;;;0.50;0.10;;;9.70;63.50;;;;;;6154167;23;20476;-75
2022/11/30 14:46:51;;;;;;;0.50;0.10;;;9.60;56.50;;;;;;6154882;23;20405;-77
2022/11/30 14:49:22;;;;;;;0.50;0.20;;;9.60;53.10;;;;;;6155329;23;20401;-77
2022/11/30 14:51:52;;;;;;;0.50;0.10;;;9.60;54.60;;;;;;6155325;23;20714;-76
2022/11/30 14:54:45;;;;;;;10.03;1.23;;;9.60;54.60;;;;;;6154718;23;20432;-76
2022/11/30 14:57:21;;;;;;;0.50;0.10;;;9.60;55.10;;;;;;6154657;23;20531;-76
2022/11/30 14:59:52;;;;;;;0.50;0.10;;;9.60;58.70;;;;;;6154106;23;20436;-76
2022/11/30 15:02:29;;;;;;;0.70;0.40;;;9.60;51.30;;;;;;6154285;23;20405;-75
2022/11/30 15:04:59;;;;;;;0.50;0.10;;;9.60;50.30;;;;;;6154914;23;20777;-77
2022/11/30 15:07:30;;;;;;;0.50;0.10;;;9.60;49.70;;;;;;6154850;23;20406;-76
2022/11/30 15:10:04;;;;;;;0.50;0.10;;;9.60;50.90;;;;;;6153991;23;20399;-77
2022/11/30 15:12:33;;;;;;;0.70;0.70;;;9.60;56.80;;;;;;6154199;23;20408;-78
2022/11/30 15:15:14;;;;;;;0.50;0.20;;;9.60;50.10;;;;;;6153215;23;20439;-76
2022/11/30 15:17:58;;;;;;;0.50;0.10;;;9.60;50.80;;;;;;6156451;23;20405;-76
2022/11/30 15:20:37;;;;;;;0.67;0.40;;;9.60;48.20;;;;;;6155597;23;20443;-76
2022/11/30 15:23:05;;;;;;;1.17;0.93;;;9.60;49.40;;;;;;6154558;23;20409;-76
2022/11/30 15:25:39;;;;;;;0.50;0.10;;;9.60;49.80;;;;;;6155334;23;20429;-77
2022/11/30 15:28:10;;;;;;;0.50;0.10;;;9.50;51.40;;;;;;6155798;23;20463;-78
2022/11/30 15:30:42;;;;;;;0.50;0.10;;;9.50;51.50;;;;;;6154677;23;20805;-75
2022/11/30 15:33:18;;;;;;;0.50;0.10;;;9.50;54.90;;;;;;6153461;23;20386;-75
2022/11/30 15:35:49;;;;;;;0.50;0.20;;;9.50;61.60;;;;;;6154779;23;20464;-76
2022/11/30 15:38:38;;;;;;;0.50;0.10;;;9.50;57.80;;;;;;6154860;23;20440;-76
2022/11/30 15:41:18;;;;;;;3.90;3.60;;;9.50;63.50;;;;;;6154801;23;20440;-76
2022/11/30 15:43:51;;;;;;;0.50;0.10;;;9.40;60.70;;;;;;6154454;23;20479;-75
2022/11/30 15:46:32;;;;;;;0.50;0.13;;;9.40;68.10;;;;;;6154261;23;20458;-76
2022/11/30 15:49:23;;;;;;;0.60;0.30;;;9.40;73.90;;;;;;6154606;23;20411;-75
2022/11/30 15:52:03;;;;;;;0.50;0.10;;;9.40;74.60;;;;;;6147242;23;20873;-77
2022/11/30 15:54:51;;;;;;;0.50;0.10;;;9.50;71.30;;;;;;6155064;23;20987;-76
2022/11/30 15:57:20;;;;;;;0.50;0.10;;;9.50;78.00;;;;;;6155303;23;20416;-76
2022/11/30 16:00:04;;;;;;;0.70;0.63;;;9.40;68.80;;;;;;6154378;23;20447;-76
2022/11/30 16:02:34;;;;;;;0.50;0.10;;;9.50;75.60;;;;;;6155208;23;20389;-76
2022/11/30 16:05:23;;;;;;;0.50;0.10;;;9.50;67.10;;;;;;6154333;23;20513;-76
2022/11/30 16:07:55;;;;;;;0.50;0.10;;;9.50;63.30;;;;;;6153910;23;20459;-76
2022/11/30 16:10:26;;;;;;;0.50;0.10;;;9.60;60.30;;;;;;6155010;23;20385;-76
2022/11/30 16:12:55;;;;;;;1.23;1.03;;;9.50;58.10;;;;;;6153088;23;20412;-74
2022/11/30 16:15:26;;;;;;;0.50;0.10;;;9.60;54.00;;;;;;6154056;23;20483;-75
2022/11/30 16:17:55;;;;;;;0.50;0.10;;;9.50;57.00;;;;;;6154337;23;20479;-75
2022/11/30 16:20:23;;;;;;;0.50;0.10;;;9.50;47.90;;;;;;6154458;23;20441;-75
2022/11/30 16:22:53;;;;;;;0.50;0.10;;;9.50;50.20;;;;;;6154773;23;20413;-75
2022/11/30 16:25:22;;;;;;;0.90;0.70;;;9.40;35.00;;;;;;6154790;23;20440;-75
2022/11/30 16:27:50;;;;;;;0.50;0.20;;;9.40;39.50;;;;;;6150629;23;20779;-75
2022/11/30 16:30:21;;;;;;;0.50;0.10;;;9.40;35.40;;;;;;6150899;23;20452;-75
2022/11/30 16:32:50;;;;;;;0.70;0.30;;;9.40;39.70;;;;;;6154398;23;20389;-77
2022/11/30 16:35:21;;;;;;;0.50;0.30;;;9.50;56.80;;;;;;6154809;23;20427;-74
2022/11/30 16:37:49;;;;;;;1.67;0.83;;;9.50;59.60;;;;;;6159240;23;20382;-75
2022/11/30 16:40:19;;;;;;;7.30;2.53;;;9.50;66.30;;;;;;6159295;23;21039;-77
2022/11/30 16:42:49;;;;;;;0.60;0.47;;;9.50;64.00;;;;;;6159461;23;20488;-77
2022/11/30 16:45:20;;;;;;;5.40;1.70;;;9.50;59.10;;;;;;6155604;23;20429;-74
2022/11/30 16:47:49;;;;;;;0.60;0.13;;;9.40;61.00;;;;;;6154532;23;20409;-76
2022/11/30 16:50:17;;;;;;;0.50;0.10;;;9.40;64.30;;;;;;6153779;23;20448;-76
2022/11/30 16:52:46;;;;;;;0.50;0.10;;;9.40;71.30;;;;;;6154846;23;20416;-76
2022/11/30 16:55:16;;;;;;;0.70;0.50;;;9.40;67.70;;;;;;6154280;23;20480;-76
2022/11/30 16:57:45;;;;;;;0.97;0.97;;;9.40;72.60;;;;;;6153397;23;20969;-76
2022/11/30 17:00:16;;;;;;;0.50;0.10;;;9.40;66.60;;;;;;6155190;23;21149;-75
2022/11/30 17:02:50;;;;;;;1.63;0.87;;;9.40;68.10;;;;;;6157673;23;20556;-76
2022/11/30 17:05:18;;;;;;;4.13;3.93;;;9.40;70.10;;;;;;6157854;23;20758;-75
2022/11/30 17:07:46;;;;;;;0.50;0.10;;;9.40;72.20;;;;;;6157547;23;20500;-76
2022/11/30 17:10:14;;;;;;;0.50;0.10;;;9.40;75.60;;;;;;6156005;23;20492;-75
2022/11/30 17:12:42;;;;;;;8.83;7.93;;;9.40;82.20;;;;;;6155421;23;20448;-75
2022/11/30 17:15:15;;;;;;;1.73;1.63;;;9.40;78.60;;;;;;6156258;23;20551;-78
2022/11/30 17:17:44;;;;;;;0.90;0.67;;;9.40;78.50;;;;;;6157548;23;20449;-78
2022/11/30 17:20:14;;;;;;;0.50;0.10;;;9.30;82.20;;;;;;6159566;23;20429;-77
2022/11/30 17:22:43;;;;;;;9.03;1.63;;;9.30;85.10;;;;;;6160025;23;20483;-76
2022/11/30 17:25:14;;;;;;;0.70;0.70;;;9.30;84.40;;;;;;6159835;23;21019;-78
2022/11/30 17:27:43;;;;;;;2.00;1.90;;;9.30;84.80;;;;;;6159186;23;20929;-78
2022/11/30 17:30:14;;;;;;;0.50;0.10;;;9.30;86.00;;;;;;6158277;23;20415;-78
2022/11/30 17:32:42;;;;;;;2.10;2.00;;;;;;;;;;6159805;23;20437;-76
2022/11/30 17:35:11;;;;;;;0.50;0.10;;;9.30;88.90;;;;;;6156665;23;20436;-76